createdAt,value
2019-01-31T00:01:37.906Z,1.45
2019-01-31T00:04:18.797Z,1.02
2019-01-31T00:07:14.034Z,1.30
2019-01-31T00:09:48.833Z,1.20
2019-01-31T00:12:26.832Z,1.20
2019-01-31T00:15:03.292Z,1.45
2019-01-31T00:17:47.434Z,1.32
2019-01-31T00:20:52.472Z,1.67
2019-01-31T00:23:30.785Z,2.30
2019-01-31T00:26:18.829Z,1.70
2019-01-31T00:28:51.031Z,2.33
2019-01-31T00:31:40.971Z,2.10
2019-01-31T00:34:19.493Z,2.15
2019-01-31T00:37:13.792Z,2.55
2019-01-31T00:39:57.636Z,2.85
2019-01-31T00:45:35.132Z,4.12
2019-01-31T00:48:09.654Z,2.90
2019-01-31T00:50:48.372Z,2.10
2019-01-31T00:53:35.598Z,3.05
2019-01-31T00:56:27.333Z,4.03
2019-01-31T00:59:24.801Z,3.02
2019-01-31T01:02:02.065Z,3.58
2019-01-31T01:04:43.053Z,3.90
2019-01-31T01:07:33.136Z,3.25
2019-01-31T01:10:05.330Z,2.15
2019-01-31T01:12:39.677Z,3.00
2019-01-31T01:15:32.574Z,3.27
2019-01-31T01:18:10.173Z,3.50
2019-01-31T01:21:00.054Z,3.35
2019-01-31T01:23:51.592Z,3.30
2019-01-31T01:26:35.636Z,3.50
2019-01-31T01:29:22.532Z,3.08
2019-01-31T01:32:12.021Z,2.80
2019-01-31T01:35:06.516Z,3.60
2019-01-31T01:37:47.572Z,2.55
2019-01-31T01:40:25.565Z,3.15
2019-01-31T01:42:58.747Z,4.03
2019-01-31T01:45:33.293Z,4.35
2019-01-31T01:48:05.119Z,2.60
2019-01-31T01:50:55.554Z,4.37
2019-01-31T01:53:50.557Z,3.33
2019-01-31T01:56:25.373Z,4.30
2019-01-31T01:59:02.653Z,4.45
2019-01-31T02:01:40.154Z,3.17
2019-01-31T02:04:14.892Z,4.47
2019-01-31T02:06:58.953Z,2.92
2019-01-31T02:09:47.493Z,3.58
2019-01-31T02:12:49.973Z,3.33
2019-01-31T02:15:22.044Z,3.77
2019-01-31T02:17:55.625Z,3.58
2019-01-31T02:20:27.588Z,3.92
2019-01-31T02:23:06.436Z,3.80
2019-01-31T02:25:53.698Z,5.65
2019-01-31T02:28:31.441Z,4.20
2019-01-31T02:31:22.553Z,3.80
2019-01-31T02:34:10.914Z,6.15
2019-01-31T02:36:48.614Z,4.42
2019-01-31T02:39:20.673Z,3.92
2019-01-31T02:42:07.810Z,3.83
2019-01-31T02:44:44.972Z,3.83
2019-01-31T02:47:31.975Z,4.10
2019-01-31T02:50:16.954Z,3.72
2019-01-31T02:52:54.433Z,3.70
2019-01-31T02:55:45.253Z,4.62
2019-01-31T02:58:19.531Z,4.15
2019-01-31T03:01:00.141Z,4.35
2019-01-31T03:03:36.194Z,4.45
2019-01-31T03:06:29.253Z,4.65
2019-01-31T03:09:04.073Z,4.30
2019-01-31T03:11:38.910Z,5.28
2019-01-31T03:14:10.805Z,4.30
2019-01-31T03:16:51.953Z,4.35
2019-01-31T03:19:51.555Z,5.90
2019-01-31T03:22:29.875Z,4.90
2019-01-31T03:25:19.845Z,4.50
2019-01-31T03:27:57.673Z,4.03
2019-01-31T03:30:48.865Z,2.33
2019-01-31T03:33:23.698Z,7.90
2019-01-31T03:35:58.333Z,4.70
2019-01-31T03:38:40.977Z,4.85
2019-01-31T03:41:21.613Z,5.83
2019-01-31T03:44:02.208Z,2.50
2019-01-31T03:46:38.938Z,4.00
2019-01-31T03:49:30.067Z,3.65
2019-01-31T03:52:35.430Z,6.03
2019-01-31T03:55:19.453Z,3.67
2019-01-31T03:58:10.156Z,5.97
2019-01-31T04:00:56.981Z,5.72
2019-01-31T04:03:35.568Z,2.45
2019-01-31T04:06:07.756Z,4.87
2019-01-31T04:08:36.739Z,4.35
2019-01-31T04:11:07.161Z,2.30
2019-01-31T04:13:36.373Z,5.17
2019-01-31T04:16:05.278Z,3.85
2019-01-31T04:18:34.054Z,3.17
2019-01-31T04:21:02.934Z,5.08
2019-01-31T04:23:31.833Z,4.33
2019-01-31T04:26:00.621Z,5.42
2019-01-31T04:28:30.855Z,4.28
2019-01-31T04:31:00.588Z,4.50
2019-01-31T04:33:29.438Z,6.08
2019-01-31T04:35:59.668Z,7.85
2019-01-31T04:38:28.330Z,4.92
2019-01-31T04:40:57.239Z,4.37
2019-01-31T04:43:26.115Z,7.15
2019-01-31T04:45:55.008Z,5.62
2019-01-31T04:48:23.786Z,7.47
2019-01-31T04:50:52.793Z,7.40
2019-01-31T04:53:21.684Z,7.30
2019-01-31T04:55:50.453Z,7.25
2019-01-31T04:58:19.261Z,7.53
2019-01-31T05:00:48.144Z,9.58
2019-01-31T05:03:17.037Z,4.97
2019-01-31T05:05:45.825Z,7.90
2019-01-31T05:08:14.603Z,9.40
2019-01-31T05:10:49.744Z,9.43
2019-01-31T05:13:18.425Z,8.33
2019-01-31T05:15:47.233Z,7.08
2019-01-31T05:18:16.216Z,9.40
2019-01-31T05:20:45.046Z,7.83
2019-01-31T05:23:15.127Z,6.80
2019-01-31T05:25:43.966Z,7.25
2019-01-31T05:28:12.796Z,8.45
2019-01-31T05:30:41.586Z,8.08
2019-01-31T05:33:10.579Z,7.30
2019-01-31T05:35:39.355Z,7.15
2019-01-31T05:38:08.159Z,6.78
2019-01-31T05:40:37.059Z,6.95
2019-01-31T05:43:05.927Z,6.30
2019-01-31T05:45:34.830Z,6.12
2019-01-31T05:48:04.030Z,6.50
2019-01-31T05:50:34.140Z,6.35
2019-01-31T05:53:03.129Z,8.93
2019-01-31T05:55:32.037Z,7.95
2019-01-31T05:58:00.819Z,7.87
2019-01-31T06:00:31.239Z,9.73
2019-01-31T06:03:00.030Z,10.38
2019-01-31T06:05:28.809Z,7.15
2019-01-31T06:07:57.729Z,7.35
2019-01-31T06:10:26.822Z,6.80
2019-01-31T06:12:55.704Z,10.80
2019-01-31T06:15:24.588Z,10.75
2019-01-31T06:17:53.475Z,6.75
2019-01-31T06:20:25.231Z,7.12
2019-01-31T06:22:55.446Z,7.92
2019-01-31T06:25:24.348Z,5.35
2019-01-31T06:27:53.113Z,7.78
2019-01-31T06:30:23.155Z,7.40
2019-01-31T06:32:52.248Z,12.45
2019-01-31T06:35:23.077Z,9.30
2019-01-31T06:37:51.974Z,10.45
2019-01-31T06:40:21.684Z,7.75
2019-01-31T06:42:50.475Z,7.25
2019-01-31T06:45:20.936Z,7.70
2019-01-31T06:47:50.009Z,6.37
2019-01-31T06:50:18.890Z,7.80
2019-01-31T06:52:47.780Z,10.68
2019-01-31T06:55:18.100Z,8.80
2019-01-31T06:57:46.860Z,7.40
2019-01-31T07:00:26.840Z,9.53
2019-01-31T07:02:55.939Z,7.70
2019-01-31T07:05:24.815Z,10.25
2019-01-31T07:07:53.711Z,7.92
2019-01-31T07:10:27.261Z,8.03
2019-01-31T07:12:56.110Z,7.58
2019-01-31T07:15:24.998Z,7.42
2019-01-31T07:17:53.980Z,9.00
2019-01-31T07:20:22.805Z,9.00
2019-01-31T07:22:51.664Z,4.12
2019-01-31T07:25:23.420Z,5.80
2019-01-31T07:27:52.314Z,5.60
2019-01-31T07:30:22.480Z,8.83
2019-01-31T07:32:51.325Z,5.47
2019-01-31T07:35:20.226Z,7.67
2019-01-31T07:37:49.104Z,7.60
2019-01-31T07:40:24.642Z,9.33
2019-01-31T07:42:53.427Z,8.18
2019-01-31T07:45:28.946Z,7.90
2019-01-31T07:47:59.174Z,9.65
2019-01-31T07:50:27.888Z,12.88
2019-01-31T07:52:57.002Z,15.63
2019-01-31T07:55:25.979Z,3.85
2019-01-31T07:57:54.879Z,6.40
2019-01-31T08:00:27.696Z,13.98
2019-01-31T08:02:57.417Z,8.48
2019-01-31T08:05:27.793Z,2.60
2019-01-31T08:07:57.940Z,6.75
2019-01-31T08:10:32.643Z,6.47
2019-01-31T08:13:03.160Z,7.53
2019-01-31T08:15:32.060Z,7.87
2019-01-31T08:18:00.964Z,7.35
2019-01-31T13:26:34.175Z,10.75
2019-01-31T13:29:03.063Z,9.35
2019-01-31T13:31:31.951Z,12.98
2019-01-31T13:34:01.058Z,11.57
2019-01-31T13:36:31.619Z,7.12
2019-01-31T13:39:00.150Z,7.10
2019-01-31T13:41:29.044Z,7.08
2019-01-31T13:43:58.068Z,6.42
2019-01-31T13:46:26.921Z,11.68
2019-01-31T13:48:55.819Z,8.63
2019-01-31T13:51:24.583Z,8.50
2019-01-31T13:53:53.295Z,9.73
2019-01-31T13:56:21.980Z,8.60
2019-01-31T13:58:50.665Z,5.28
2019-01-31T14:01:19.345Z,8.33
2019-01-31T14:03:48.238Z,7.72
2019-01-31T14:06:17.030Z,8.88
2019-01-31T14:08:45.815Z,8.08
2019-01-31T14:11:14.804Z,5.95
2019-01-31T14:13:43.602Z,8.08
2019-01-31T14:16:12.390Z,14.47
2019-01-31T14:18:41.287Z,6.58
2019-01-31T14:21:10.060Z,12.90
2019-01-31T14:23:38.855Z,7.75
2019-01-31T14:26:07.745Z,4.33
2019-01-31T14:28:36.635Z,10.13
2019-01-31T14:31:05.525Z,7.03
2019-01-31T14:33:34.426Z,9.20
2019-01-31T14:36:03.620Z,7.85
2019-01-31T14:38:32.610Z,7.15
2019-01-31T14:41:01.501Z,6.30
2019-01-31T14:43:30.395Z,10.45
2019-01-31T14:45:59.233Z,11.33
2019-01-31T14:48:28.157Z,10.15
2019-01-31T14:50:56.963Z,8.10
2019-01-31T14:53:25.745Z,6.08
2019-01-31T14:55:55.539Z,9.30
2019-01-31T14:58:24.645Z,6.50
2019-01-31T15:00:53.540Z,6.22
2019-01-31T15:03:22.540Z,8.05
2019-01-31T15:05:51.430Z,8.55
2019-01-31T15:08:20.326Z,6.17
2019-01-31T15:10:49.435Z,6.05
2019-01-31T15:13:18.196Z,9.60
2019-01-31T15:15:47.095Z,5.22
2019-01-31T15:18:35.435Z,8.25
2019-01-31T15:21:04.245Z,8.70
2019-01-31T15:23:33.118Z,8.75
2019-01-31T15:26:02.108Z,8.28
2019-01-31T15:28:30.996Z,7.80
2019-01-31T15:31:00.909Z,6.15
2019-01-31T15:33:29.900Z,10.85
2019-01-31T15:35:58.790Z,7.17
2019-01-31T15:38:27.578Z,5.00
2019-01-31T15:40:56.560Z,8.40
2019-01-31T15:43:25.380Z,7.50
2019-01-31T15:45:54.270Z,9.13
2019-01-31T15:48:23.350Z,10.55
2019-01-31T15:50:52.140Z,7.55
2019-01-31T15:53:22.294Z,7.35
2019-01-31T15:55:51.468Z,9.03
2019-01-31T15:58:20.450Z,9.05
2019-01-31T16:00:50.155Z,6.78
2019-01-31T16:03:21.817Z,8.45
2019-01-31T16:05:50.899Z,15.63
2019-01-31T16:08:20.149Z,9.25
2019-01-31T16:10:49.467Z,8.28
2019-01-31T16:13:18.573Z,8.45
2019-01-31T16:15:47.392Z,8.58
2019-01-31T16:18:16.294Z,8.90
2019-01-31T16:20:44.945Z,7.08
2019-01-31T16:23:14.247Z,8.13
2019-01-31T16:25:43.325Z,8.03
2019-01-31T16:28:12.225Z,8.80
2019-01-31T16:30:41.105Z,11.40
2019-01-31T16:33:10.194Z,13.05
2019-01-31T16:35:38.987Z,10.08
2019-01-31T16:38:07.985Z,9.28
2019-01-31T16:40:36.975Z,9.23
2019-01-31T16:43:05.867Z,11.73
2019-01-31T16:45:34.769Z,6.70
2019-01-31T16:48:04.570Z,8.63
2019-01-31T16:50:33.670Z,10.18
2019-01-31T16:53:02.560Z,8.53
2019-01-31T16:55:31.732Z,8.58
2019-01-31T16:58:00.663Z,6.03
2019-01-31T17:00:33.126Z,6.12
2019-01-31T17:03:02.223Z,9.73
2019-01-31T17:05:32.337Z,9.83
2019-01-31T17:08:01.224Z,8.08
2019-01-31T17:10:30.223Z,8.70
2019-01-31T17:12:59.440Z,10.18
2019-01-31T17:15:28.440Z,10.50
2019-01-31T17:17:57.619Z,12.70
2019-01-31T17:20:32.744Z,11.50
2019-01-31T17:23:01.843Z,8.33
2019-01-31T17:25:30.960Z,11.65
2019-01-31T17:28:00.243Z,11.00
2019-01-31T17:30:29.726Z,8.28
2019-01-31T17:33:00.394Z,8.83
2019-01-31T17:35:29.800Z,11.12
2019-01-31T17:37:58.683Z,10.15
2019-01-31T17:40:33.013Z,9.08
2019-01-31T17:43:01.883Z,12.78
2019-01-31T17:45:31.094Z,10.82
2019-01-31T17:48:00.322Z,8.80
2019-01-31T17:50:31.003Z,11.63
2019-01-31T17:52:59.986Z,9.68
2019-01-31T17:55:29.304Z,9.83
2019-01-31T17:57:58.204Z,14.93
2019-01-31T18:00:43.262Z,14.70
2019-01-31T18:03:12.264Z,13.48
2019-01-31T18:05:41.166Z,12.93
2019-01-31T18:08:10.344Z,12.85
2019-01-31T18:10:39.277Z,8.45
2019-01-31T18:13:08.474Z,16.40
2019-01-31T18:15:42.183Z,13.45
2019-01-31T18:18:08.116Z,10.82
2019-01-31T18:20:37.363Z,16.37
2019-01-31T18:23:06.646Z,11.68
2019-01-31T18:25:35.545Z,13.55
2019-01-31T18:28:04.424Z,11.97
2019-01-31T18:30:35.473Z,12.28
2019-01-31T18:33:04.659Z,14.07
2019-01-31T18:35:34.883Z,16.48
2019-01-31T18:38:04.003Z,13.43
2019-01-31T18:40:34.272Z,10.85
2019-01-31T18:43:03.303Z,12.90
2019-01-31T18:45:34.274Z,11.95
2019-01-31T18:48:03.343Z,12.63
2019-01-31T18:50:34.501Z,14.87
2019-01-31T18:53:03.684Z,10.03
2019-01-31T18:55:32.666Z,12.98
2019-01-31T18:58:01.569Z,15.40
2019-01-31T19:00:32.801Z,14.47
2019-01-31T19:03:01.601Z,12.45
2019-01-31T19:05:30.707Z,13.65
2019-01-31T19:07:59.935Z,15.43
2019-01-31T19:10:28.917Z,12.93
2019-01-31T19:12:57.783Z,12.47
2019-01-31T19:15:28.203Z,12.28
2019-01-31T19:18:05.543Z,11.18
2019-01-31T19:20:30.068Z,11.68
2019-01-31T19:23:03.683Z,13.15
2019-01-31T19:25:32.564Z,11.28
2019-01-31T19:28:01.657Z,13.20
2019-01-31T19:30:35.538Z,11.88
2019-01-31T19:33:05.053Z,10.90
2019-01-31T19:35:34.166Z,11.50
2019-01-31T19:38:03.264Z,11.88
2019-01-31T19:40:33.951Z,13.00
2019-01-31T19:43:03.040Z,14.30
2019-01-31T19:45:40.113Z,12.60
2019-01-31T19:48:08.899Z,16.23
2019-01-31T19:50:38.064Z,19.10
2019-01-31T19:53:07.364Z,15.05
2019-01-31T19:55:36.263Z,18.15
2019-01-31T19:58:05.361Z,19.12
2019-01-31T20:00:34.354Z,16.45
2019-01-31T20:03:03.221Z,15.20
2019-01-31T20:05:32.010Z,15.83
2019-01-31T20:08:02.645Z,19.82
2019-01-31T20:10:32.181Z,20.52
2019-01-31T20:13:01.266Z,16.50
2019-01-31T20:15:30.597Z,13.03
2019-01-31T20:18:00.147Z,14.93
2019-01-31T20:20:30.552Z,13.85
2019-01-31T20:23:00.031Z,13.78
2019-01-31T20:25:30.192Z,13.15
2019-01-31T20:27:59.070Z,13.03
2019-01-31T20:30:47.343Z,10.98
2019-01-31T20:33:16.244Z,16.25
2019-01-31T20:35:45.359Z,18.15
2019-01-31T20:38:14.416Z,14.90
2019-01-31T20:40:43.428Z,13.03
2019-01-31T20:43:12.200Z,16.48
2019-01-31T20:45:41.204Z,13.35
2019-01-31T20:48:10.084Z,11.20
2019-01-31T20:50:39.801Z,11.60
2019-01-31T20:53:08.800Z,12.43
2019-01-31T20:55:37.903Z,11.38
2019-01-31T20:58:07.143Z,14.47
2019-01-31T21:00:41.186Z,10.38
2019-01-31T21:03:10.343Z,11.88
2019-01-31T21:05:39.183Z,10.40
2019-01-31T21:08:08.990Z,12.95
2019-01-31T21:10:38.013Z,20.70
2019-01-31T21:13:06.974Z,10.15
2019-01-31T21:15:36.183Z,14.63
2019-01-31T21:18:05.706Z,17.30
2019-01-31T21:20:34.664Z,12.00
2019-01-31T21:23:03.983Z,14.07
2019-01-31T21:25:34.543Z,12.40
2019-01-31T21:28:03.404Z,14.15
2019-01-31T21:30:34.567Z,12.25
2019-01-31T21:33:04.564Z,14.30
2019-01-31T21:35:33.453Z,12.73
2019-01-31T21:38:02.446Z,11.43
2019-01-31T21:40:33.364Z,11.38
2019-01-31T21:43:02.363Z,10.05
2019-01-31T21:45:31.463Z,9.75
2019-01-31T21:48:00.857Z,13.80
2019-01-31T21:50:32.970Z,13.08
2019-01-31T21:53:02.088Z,12.00
2019-01-31T21:55:31.041Z,17.73
2019-01-31T21:58:00.040Z,13.88
2019-01-31T22:00:33.763Z,12.07
2019-01-31T22:03:02.705Z,18.20
2019-01-31T22:05:31.606Z,10.72
2019-01-31T22:08:00.595Z,12.78
2019-01-31T22:10:29.375Z,13.93
2019-01-31T22:12:58.265Z,14.43
2019-01-31T22:15:46.718Z,11.78
2019-01-31T22:18:17.892Z,15.08
2019-01-31T22:20:46.131Z,12.23
2019-01-31T22:23:15.225Z,12.80
2019-01-31T22:25:44.115Z,12.37
2019-01-31T22:28:13.001Z,10.25
2019-01-31T22:30:42.006Z,13.98
2019-01-31T22:33:10.808Z,16.32
2019-01-31T22:35:39.685Z,13.13
2019-01-31T22:38:08.988Z,16.05
2019-01-31T22:40:37.875Z,16.95
2019-01-31T22:43:06.770Z,11.93
2019-01-31T22:45:36.999Z,12.58
2019-01-31T22:48:06.391Z,17.50
2019-01-31T22:50:35.279Z,14.10
2019-01-31T22:53:04.289Z,12.63
2019-01-31T22:55:33.380Z,14.25
2019-01-31T22:58:02.262Z,12.78
2019-01-31T23:00:55.620Z,13.28
2019-01-31T23:03:24.767Z,12.28
2019-01-31T23:05:53.706Z,10.98
2019-01-31T23:08:22.700Z,11.88
2019-01-31T23:10:51.593Z,13.10
2019-01-31T23:13:20.575Z,17.02
2019-01-31T23:15:49.455Z,9.53
2019-01-31T23:18:18.260Z,12.85
2019-01-31T23:20:47.150Z,14.73
2019-01-31T23:23:16.250Z,12.78
2019-01-31T23:25:45.030Z,16.25
2019-01-31T23:28:13.937Z,10.45
2019-01-31T23:30:42.844Z,14.45
2019-01-31T23:33:11.735Z,12.37
2019-01-31T23:35:40.614Z,14.63
2019-01-31T23:38:09.795Z,11.25
2019-01-31T23:40:38.796Z,13.05
2019-01-31T23:43:07.786Z,9.43
2019-01-31T23:45:36.676Z,13.60
2019-01-31T23:48:05.666Z,17.40
2019-01-31T23:50:34.556Z,9.85
2019-01-31T23:53:03.656Z,6.75
2019-01-31T23:55:32.443Z,14.73
2019-01-31T23:58:01.441Z,11.10
